Time;durP1;ratioP1;P1;durP2;ratioP2;P2;SDS_P1;SDS_P2;PMS_P1;PMS_P2;Temp;Humidity;BMP_temperature;BMP_pressure;BME280_temperature;BME280_humidity;BME280_pressure;Samples;Min_cycle;Max_cycle;Signal;HPM_P1;HPM_P2
2022/06/27 00:00:03;;;;;;;;;3.00;3.00;;;;;;;;4970412;28;45549;-65
2022/06/27 00:02:29;;;;;;;;;3.00;3.00;;;;;;;;4970570;28;48346;-65
2022/06/27 00:04:54;;;;;;;;;4.75;3.75;;;;;;;;4967686;28;47474;-65
2022/06/27 00:07:19;;;;;;;;;2.00;2.00;;;;;;;;4969201;28;45534;-65
2022/06/27 00:09:44;;;;;;;;;2.00;2.00;;;;;;;;4970740;28;45332;-67
2022/06/27 00:12:10;;;;;;;;;2.50;2.50;;;;;;;;4972845;28;45725;-63
2022/06/27 00:14:36;;;;;;;;;2.25;2.25;;;;;;;;4970812;28;47737;-65
2022/06/27 00:17:01;;;;;;;;;2.25;2.25;;;;;;;;4970931;28;45487;-65
2022/06/27 00:19:26;;;;;;;;;3.75;2.75;;;;;;;;4972683;28;45379;-65
2022/06/27 00:21:51;;;;;;;;;3.00;3.00;;;;;;;;4974681;28;45856;-65
2022/06/27 00:24:16;;;;;;;;;1.75;1.75;;;;;;;;4970967;28;48542;-66
2022/06/27 00:26:42;;;;;;;;;3.00;2.50;;;;;;;;4973523;28;46002;-65
2022/06/27 00:29:07;;;;;;;;;1.00;1.00;;;;;;;;4974094;28;45363;-64
2022/06/27 00:31:32;;;;;;;;;3.50;2.50;;;;;;;;4973741;28;45637;-65
2022/06/27 00:33:58;;;;;;;;;3.25;2.75;;;;;;;;4972332;28;48539;-64
2022/06/27 00:36:23;;;;;;;;;3.00;3.00;;;;;;;;4973410;28;45422;-65
2022/06/27 00:38:49;;;;;;;;;2.25;2.25;;;;;;;;4973708;28;45542;-65
2022/06/27 00:41:14;;;;;;;;;2.00;2.00;;;;;;;;4970628;28;45862;-64
2022/06/27 00:43:43;;;;;;;;;4.00;2.00;;;;;;;;4973263;28;45702;-64
2022/06/27 00:46:08;;;;;;;;;2.25;2.25;;;;;;;;5005432;28;45522;-65
2022/06/27 00:48:34;;;;;;;;;2.50;2.50;;;;;;;;4970087;28;45493;-64
2022/06/27 00:50:59;;;;;;;;;3.00;2.50;;;;;;;;4973374;28;45524;-64
2022/06/27 00:53:24;;;;;;;;;3.00;3.00;;;;;;;;4970327;28;47696;-65
2022/06/27 00:55:50;;;;;;;;;2.00;2.00;;;;;;;;4973257;28;45416;-65
2022/06/27 00:58:16;;;;;;;;;1.00;1.00;;;;;;;;4972398;28;45391;-67
2022/06/27 01:00:41;;;;;;;;;2.00;2.00;;;;;;;;4973603;28;45908;-65
2022/06/27 01:03:06;;;;;;;;;4.50;3.00;;;;;;;;4972923;28;46214;-64
2022/06/27 01:05:31;;;;;;;;;3.00;3.00;;;;;;;;4972782;28;45396;-66
2022/06/27 01:07:57;;;;;;;;;5.00;3.25;;;;;;;;4973145;28;45909;-65
2022/06/27 01:10:22;;;;;;;;;3.25;2.50;;;;;;;;4971699;28;45364;-65
2022/06/27 01:12:48;;;;;;;;;3.50;2.25;;;;;;;;4973166;28;45424;-64
2022/06/27 01:15:14;;;;;;;;;3.00;3.00;;;;;;;;4972949;28;45486;-64
2022/06/27 01:17:39;;;;;;;;;4.50;3.75;;;;;;;;4973057;28;45618;-65
2022/06/27 01:20:05;;;;;;;;;4.00;2.25;;;;;;;;4973121;28;45490;-65
2022/06/27 01:22:31;;;;;;;;;3.50;3.50;;;;;;;;4971680;28;45934;-64
2022/06/27 01:24:56;;;;;;;;;3.75;2.00;;;;;;;;4973318;28;46035;-65
2022/06/27 01:27:22;;;;;;;;;3.00;3.00;;;;;;;;4972892;28;46351;-66
2022/06/27 01:29:47;;;;;;;;;3.50;3.00;;;;;;;;4969969;28;45951;-65
2022/06/27 01:32:12;;;;;;;;;3.25;3.25;;;;;;;;4972545;28;46161;-65
2022/06/27 01:34:37;;;;;;;;;2.00;2.00;;;;;;;;4970959;28;45482;-65
2022/06/27 01:37:04;;;;;;;;;5.25;3.75;;;;;;;;4998076;28;45595;-65
2022/06/27 01:39:29;;;;;;;;;6.75;5.75;;;;;;;;4971336;28;45772;-66
2022/06/27 01:41:55;;;;;;;;;3.25;2.75;;;;;;;;4972111;28;46114;-64
2022/06/27 01:44:22;;;;;;;;;5.50;4.75;;;;;;;;5003896;28;45743;-64
2022/06/27 01:46:49;;;;;;;;;4.75;4.75;;;;;;;;4969621;28;45489;-64
2022/06/27 01:49:15;;;;;;;;;4.75;4.75;;;;;;;;4972934;28;45436;-65
2022/06/27 01:51:42;;;;;;;;;2.50;2.50;;;;;;;;5004360;28;48841;-66
2022/06/27 01:54:08;;;;;;;;;3.50;3.50;;;;;;;;5003791;28;46073;-64
2022/06/27 01:56:33;;;;;;;;;3.25;3.25;;;;;;;;4972310;28;45366;-64
2022/06/27 01:58:59;;;;;;;;;3.75;2.75;;;;;;;;4971816;28;45483;-65
2022/06/27 02:01:25;;;;;;;;;2.75;2.75;;;;;;;;4970841;28;48686;-66
2022/06/27 02:03:50;;;;;;;;;2.25;2.25;;;;;;;;4971431;28;45486;-65
2022/06/27 02:06:16;;;;;;;;;3.00;2.25;;;;;;;;4969237;28;45378;-65
2022/06/27 02:08:46;;;;;;;;;3.00;2.00;;;;;;;;4972469;28;45509;-65
2022/06/27 02:11:12;;;;;;;;;3.25;3.00;;;;;;;;4972026;28;45475;-66
2022/06/27 02:13:37;;;;;;;;;3.50;3.00;;;;;;;;4970598;28;46519;-65
2022/06/27 02:16:04;;;;;;;;;1.75;1.75;;;;;;;;4971044;28;45636;-65
2022/06/27 02:18:30;;;;;;;;;1.00;1.00;;;;;;;;4971926;28;45557;-66
2022/06/27 02:20:55;;;;;;;;;3.75;2.50;;;;;;;;4969175;28;47637;-65
2022/06/27 02:23:20;;;;;;;;;2.25;2.25;;;;;;;;4969204;28;45639;-65
2022/06/27 02:25:46;;;;;;;;;2.00;2.00;;;;;;;;5003363;28;45852;-65
2022/06/27 02:28:12;;;;;;;;;0.50;0.50;;;;;;;;4972142;28;45481;-66
2022/06/27 02:30:37;;;;;;;;;3.00;2.75;;;;;;;;4972030;28;45446;-64
2022/06/27 02:33:03;;;;;;;;;1.75;1.75;;;;;;;;4968581;28;46476;-63
2022/06/27 02:35:29;;;;;;;;;5.25;3.25;;;;;;;;4972133;28;45693;-64
2022/06/27 02:37:55;;;;;;;;;2.00;2.00;;;;;;;;5003235;28;45474;-65
2022/06/27 02:40:20;;;;;;;;;2.75;2.75;;;;;;;;4971563;28;45567;-66
2022/06/27 02:42:46;;;;;;;;;1.75;1.75;;;;;;;;4970743;28;45512;-65
2022/06/27 02:45:12;;;;;;;;;2.75;2.75;;;;;;;;4971828;28;45510;-66
2022/06/27 02:47:38;;;;;;;;;4.25;2.25;;;;;;;;4968530;28;45850;-65
2022/06/27 02:50:03;;;;;;;;;3.00;2.00;;;;;;;;4971327;28;45766;-66
2022/06/27 02:52:28;;;;;;;;;2.50;2.50;;;;;;;;4971476;28;45307;-65
2022/06/27 02:54:57;;;;;;;;;2.75;2.00;;;;;;;;4972237;28;45436;-66
2022/06/27 02:57:38;;;;;;;;;2.00;2.00;;;;;;;;4971692;28;45733;-64
2022/06/27 03:00:05;;;;;;;;;1.25;1.25;;;;;;;;4968262;28;47576;-65
2022/06/27 03:02:30;;;;;;;;;2.50;2.50;;;;;;;;4971421;28;45574;-65
2022/06/27 03:04:56;;;;;;;;;2.75;2.75;;;;;;;;4968697;28;45428;-65
2022/06/27 03:07:22;;;;;;;;;2.25;1.50;;;;;;;;4970375;28;45517;-65
2022/06/27 03:09:47;;;;;;;;;2.00;2.00;;;;;;;;4970176;28;48732;-65
2022/06/27 03:12:12;;;;;;;;;2.75;2.75;;;;;;;;4971110;28;45958;-63
2022/06/27 03:14:38;;;;;;;;;1.75;1.75;;;;;;;;4971154;28;45510;-65
2022/06/27 03:17:03;;;;;;;;;2.50;2.50;;;;;;;;4968394;28;47312;-65
2022/06/27 03:19:28;;;;;;;;;2.00;2.00;;;;;;;;4970013;28;47879;-64
2022/06/27 03:21:54;;;;;;;;;1.25;1.25;;;;;;;;4971855;28;45540;-66
2022/06/27 03:24:20;;;;;;;;;3.75;3.00;;;;;;;;4968377;28;45412;-65
2022/06/27 03:26:45;;;;;;;;;3.00;3.00;;;;;;;;4971443;28;45534;-64
2022/06/27 03:29:10;;;;;;;;;3.25;2.00;;;;;;;;4970981;28;45511;-66
2022/06/27 03:31:35;;;;;;;;;4.00;4.00;;;;;;;;4969354;28;46483;-64
2022/06/27 03:34:01;;;;;;;;;5.25;4.00;;;;;;;;4971658;28;45454;-64
2022/06/27 03:36:26;;;;;;;;;2.75;2.75;;;;;;;;4971279;28;45493;-64
2022/06/27 03:38:51;;;;;;;;;2.75;2.75;;;;;;;;4970977;28;45892;-64
2022/06/27 03:41:17;;;;;;;;;3.75;2.50;;;;;;;;5002206;28;45386;-64
2022/06/27 03:43:42;;;;;;;;;3.00;2.75;;;;;;;;4968611;28;45500;-65
2022/06/27 03:46:08;;;;;;;;;2.50;2.50;;;;;;;;4972524;28;45392;-64
2022/06/27 03:51:17;;;;;;;;;1.50;1.25;;;;;;;;4973962;28;45351;-65
2022/06/27 03:53:42;;;;;;;;;2.75;1.75;;;;;;;;4974575;28;45422;-66
2022/06/27 03:56:07;;;;;;;;;2.75;2.25;;;;;;;;5005699;28;45529;-66
2022/06/27 03:58:33;;;;;;;;;4.75;3.00;;;;;;;;4972579;28;47391;-65
2022/06/27 04:00:58;;;;;;;;;3.00;3.00;;;;;;;;4974421;28;45543;-66
2022/06/27 04:03:23;;;;;;;;;3.50;3.50;;;;;;;;4971265;28;45458;-65
2022/06/27 04:05:48;;;;;;;;;3.25;3.25;;;;;;;;4974086;28;45368;-65
2022/06/27 04:08:14;;;;;;;;;3.00;3.00;;;;;;;;5005246;28;47497;-65
2022/06/27 04:10:39;;;;;;;;;2.00;2.00;;;;;;;;4972559;28;46252;-65
2022/06/27 04:13:04;;;;;;;;;4.25;3.50;;;;;;;;4969064;28;45408;-65
2022/06/27 04:15:29;;;;;;;;;1.75;1.75;;;;;;;;4972542;28;45408;-64
2022/06/27 04:17:55;;;;;;;;;4.00;3.00;;;;;;;;4973638;28;46420;-66
2022/06/27 04:20:20;;;;;;;;;4.50;3.00;;;;;;;;5004948;28;45901;-64
2022/06/27 04:22:45;;;;;;;;;4.00;3.00;;;;;;;;4973791;28;45470;-65
2022/06/27 04:25:10;;;;;;;;;2.00;2.00;;;;;;;;4974292;28;45581;-63
2022/06/27 04:27:35;;;;;;;;;1.00;1.00;;;;;;;;4973847;28;45866;-64
2022/06/27 04:30:01;;;;;;;;;3.25;2.25;;;;;;;;4970660;28;45593;-64
2022/06/27 04:32:28;;;;;;;;;2.00;2.00;;;;;;;;4973310;28;45426;-64
2022/06/27 04:34:53;;;;;;;;;2.00;1.50;;;;;;;;4973377;28;45466;-64
2022/06/27 04:37:18;;;;;;;;;3.00;3.00;;;;;;;;4971941;28;47347;-64
2022/06/27 04:39:44;;;;;;;;;3.00;3.00;;;;;;;;4972307;28;46042;-64
2022/06/27 04:42:09;;;;;;;;;3.75;2.75;;;;;;;;4973345;28;45530;-64
2022/06/27 04:44:40;;;;;;;;;1.00;1.00;;;;;;;;4973145;28;45475;-64
2022/06/27 04:47:07;;;;;;;;;2.00;2.00;;;;;;;;4970161;28;47662;-64
2022/06/27 04:49:32;;;;;;;;;1.75;1.75;;;;;;;;4966543;28;45601;-65
2022/06/27 04:51:58;;;;;;;;;3.00;2.25;;;;;;;;4972438;28;45766;-65
2022/06/27 04:54:24;;;;;;;;;2.75;2.75;;;;;;;;4971433;28;45585;-66
2022/06/27 04:56:49;;;;;;;;;4.00;4.00;;;;;;;;4972314;28;46793;-66
2022/06/27 04:59:15;;;;;;;;;1.00;1.00;;;;;;;;5001520;28;45532;-66
2022/06/27 05:01:40;;;;;;;;;1.00;0.75;;;;;;;;5004011;28;45474;-66
2022/06/27 05:04:05;;;;;;;;;2.50;2.00;;;;;;;;5007013;28;45702;-66
2022/06/27 05:06:31;;;;;;;;;1.25;1.25;;;;;;;;4969774;28;47459;-65
2022/06/27 05:08:56;;;;;;;;;3.75;3.00;;;;;;;;4971334;28;45841;-66
2022/06/27 05:11:21;;;;;;;;;2.75;1.75;;;;;;;;4972109;28;45568;-65
2022/06/27 05:13:47;;;;;;;;;4.50;3.00;;;;;;;;5003243;28;45554;-65
2022/06/27 05:16:12;;;;;;;;;1.25;1.25;;;;;;;;4970953;28;47362;-66
2022/06/27 05:18:38;;;;;;;;;3.00;3.00;;;;;;;;4972513;28;45425;-65
2022/06/27 05:21:04;;;;;;;;;4.50;3.75;;;;;;;;4972132;28;45470;-65
2022/06/27 05:23:29;;;;;;;;;3.50;3.50;;;;;;;;4981455;28;45315;-66
2022/06/27 05:25:55;;;;;;;;;3.50;2.00;;;;;;;;4975227;28;47014;-65
2022/06/27 05:28:20;;;;;;;;;3.50;3.50;;;;;;;;4997558;28;45426;-66
2022/06/27 05:30:47;;;;;;;;;2.75;2.75;;;;;;;;4971274;28;45598;-67
2022/06/27 05:33:12;;;;;;;;;2.00;2.00;;;;;;;;4970056;28;45566;-72
2022/06/27 05:35:38;;;;;;;;;2.75;2.75;;;;;;;;4965726;28;46748;-67
2022/06/27 05:38:04;;;;;;;;;2.00;2.00;;;;;;;;4996077;28;45521;-67
2022/06/27 05:40:30;;;;;;;;;2.50;2.50;;;;;;;;4967614;28;45467;-64
2022/06/27 05:42:57;;;;;;;;;1.00;1.00;;;;;;;;4986267;28;45639;-64
2022/06/27 05:45:23;;;;;;;;;3.25;2.00;;;;;;;;4969879;28;45975;-66
2022/06/27 05:47:49;;;;;;;;;1.25;1.00;;;;;;;;4968816;28;45652;-66
2022/06/27 05:50:14;;;;;;;;;1.50;1.50;;;;;;;;5007145;28;45576;-65
2022/06/27 05:52:40;;;;;;;;;1.25;1.25;;;;;;;;4962737;28;45407;-65
2022/06/27 05:55:06;;;;;;;;;2.00;2.00;;;;;;;;4972279;28;45462;-65
2022/06/27 05:57:31;;;;;;;;;1.75;1.75;;;;;;;;4971458;28;45468;-65
2022/06/27 05:59:58;;;;;;;;;2.25;2.25;;;;;;;;5002036;28;46108;-64
2022/06/27 06:02:24;;;;;;;;;5.00;4.25;;;;;;;;5001061;28;45706;-62
2022/06/27 06:04:50;;;;;;;;;5.00;3.00;;;;;;;;4964907;28;45479;-66
2022/06/27 06:07:15;;;;;;;;;2.00;2.00;;;;;;;;4970509;28;45622;-63
2022/06/27 06:09:41;;;;;;;;;3.00;2.00;;;;;;;;4971005;28;45530;-66
2022/06/27 06:12:09;;;;;;;;;2.75;2.75;;;;;;;;4995693;28;45502;-63
2022/06/27 06:14:35;;;;;;;;;2.75;2.75;;;;;;;;4971218;28;45754;-64
2022/06/27 06:17:00;;;;;;;;;2.25;2.00;;;;;;;;5003464;28;46051;-63
2022/06/27 06:19:25;;;;;;;;;4.50;4.50;;;;;;;;4965416;28;45804;-65
2022/06/27 06:21:51;;;;;;;;;3.00;1.67;;;;;;;;4972703;28;45705;-65
2022/06/27 06:24:16;;;;;;;;;2.50;2.50;;;;;;;;4996567;28;48593;-63
2022/06/27 06:26:41;;;;;;;;;2.75;2.00;;;;;;;;4971483;28;45904;-63
2022/06/27 06:29:14;;;;;;;;;2.25;2.25;;;;;;;;4971594;28;45462;-63
2022/06/27 06:31:41;;;;;;;;;1.00;1.00;;;;;;;;4965021;28;45533;-64
2022/06/27 06:34:07;;;;;;;;;3.75;3.00;;;;;;;;4957919;28;46512;-63
2022/06/27 06:36:33;;;;;;;;;3.67;3.00;;;;;;;;4960762;28;45509;-63
2022/06/27 06:39:01;;;;;;;;;2.75;2.75;;;;;;;;4964540;28;45605;-64
2022/06/27 06:41:26;;;;;;;;;4.75;2.25;;;;;;;;4999176;28;45470;-66
2022/06/27 06:43:52;;;;;;;;;2.00;2.00;;;;;;;;4966994;28;45659;-64
2022/06/27 06:46:18;;;;;;;;;3.00;3.00;;;;;;;;4972210;28;45424;-64
2022/06/27 06:48:43;;;;;;;;;2.50;2.50;;;;;;;;5002754;28;45657;-64
2022/06/27 06:51:09;;;;;;;;;2.00;2.00;;;;;;;;4967939;28;45529;-64
2022/06/27 06:53:36;;;;;;;;;3.00;3.00;;;;;;;;4972359;28;45667;-64
2022/06/27 06:56:01;;;;;;;;;1.00;1.00;;;;;;;;4971214;28;45468;-64
2022/06/27 06:58:27;;;;;;;;;2.50;2.50;;;;;;;;4971016;28;45569;-66
2022/06/27 07:00:52;;;;;;;;;3.00;2.00;;;;;;;;4970036;28;45494;-62
2022/06/27 07:03:18;;;;;;;;;3.00;3.00;;;;;;;;4967923;28;48313;-64
2022/06/27 07:05:45;;;;;;;;;3.25;2.00;;;;;;;;4969030;28;46028;-62
2022/06/27 07:08:11;;;;;;;;;3.75;2.25;;;;;;;;5002081;28;45419;-62
2022/06/27 07:10:36;;;;;;;;;2.50;2.25;;;;;;;;4970595;28;45516;-62
2022/06/27 07:13:03;;;;;;;;;2.50;1.00;;;;;;;;5002065;28;48737;-64
2022/06/27 07:15:28;;;;;;;;;3.25;3.25;;;;;;;;4970308;28;45522;-63
2022/06/27 07:17:53;;;;;;;;;5.00;3.00;;;;;;;;4970334;28;45368;-63
2022/06/27 07:20:19;;;;;;;;;3.50;3.25;;;;;;;;4970369;28;45412;-64
2022/06/27 07:22:49;;;;;;;;;3.00;3.00;;;;;;;;4973899;28;46050;-63
2022/06/27 07:25:15;;;;;;;;;3.00;3.00;;;;;;;;4975225;28;45548;-65
2022/06/27 07:27:42;;;;;;;;;5.75;3.00;;;;;;;;4973607;28;45582;-62
2022/06/27 07:30:09;;;;;;;;;2.25;2.00;;;;;;;;4971198;28;45509;-64
2022/06/27 07:32:35;;;;;;;;;3.25;1.50;;;;;;;;4971339;28;46884;-63
2022/06/27 07:35:01;;;;;;;;;3.25;3.25;;;;;;;;4971286;28;45625;-63
2022/06/27 07:37:27;;;;;;;;;3.00;3.00;;;;;;;;4972868;28;45569;-62
2022/06/27 07:39:53;;;;;;;;;1.25;1.25;;;;;;;;5006072;28;46985;-63
2022/06/27 07:42:19;;;;;;;;;1.50;1.50;;;;;;;;5005574;28;47261;-63
2022/06/27 07:44:44;;;;;;;;;3.00;3.00;;;;;;;;4974019;28;45521;-63
2022/06/27 07:47:09;;;;;;;;;3.25;3.00;;;;;;;;4970063;28;45550;-64
2022/06/27 07:49:35;;;;;;;;;3.75;2.75;;;;;;;;4974360;28;45446;-63
2022/06/27 07:52:00;;;;;;;;;2.50;2.00;;;;;;;;4969086;28;45915;-64
2022/06/27 07:54:27;;;;;;;;;1.50;1.50;;;;;;;;4968137;28;45756;-66
2022/06/27 07:56:52;;;;;;;;;2.50;2.50;;;;;;;;4972496;28;45458;-64
2022/06/27 07:59:17;;;;;;;;;1.50;1.50;;;;;;;;4970707;28;45400;-64
2022/06/27 08:01:43;;;;;;;;;3.50;2.00;;;;;;;;4973845;28;45391;-64
2022/06/27 08:04:09;;;;;;;;;3.00;3.00;;;;;;;;4973229;28;46283;-65
2022/06/27 08:06:34;;;;;;;;;3.50;2.50;;;;;;;;4972604;28;45459;-65
2022/06/27 08:09:01;;;;;;;;;3.25;1.25;;;;;;;;4974361;28;45410;-63
2022/06/27 08:11:30;;;;;;;;;2.50;2.50;;;;;;;;4973917;28;46905;-64
2022/06/27 08:13:57;;;;;;;;;1.00;1.00;;;;;;;;5005034;28;45644;-65
2022/06/27 08:16:23;;;;;;;;;3.00;3.00;;;;;;;;4974295;28;45465;-64
2022/06/27 08:18:50;;;;;;;;;2.00;2.00;;;;;;;;4974275;28;45614;-66
2022/06/27 08:21:20;;;;;;;;;1.25;1.25;;;;;;;;4972195;28;46671;-64
2022/06/27 08:23:46;;;;;;;;;3.00;3.00;;;;;;;;4970939;28;45975;-66
2022/06/27 08:26:15;;;;;;;;;3.00;3.00;;;;;;;;4974028;28;45568;-64
2022/06/27 08:28:41;;;;;;;;;3.75;3.00;;;;;;;;4960036;28;45434;-66
2022/06/27 08:31:08;;;;;;;;;3.25;3.00;;;;;;;;4974196;28;46197;-66
2022/06/27 08:33:33;;;;;;;;;4.50;3.75;;;;;;;;4971970;28;45618;-68
2022/06/27 08:35:59;;;;;;;;;1.75;1.75;;;;;;;;4973931;28;45818;-66
2022/06/27 08:38:25;;;;;;;;;2.75;2.75;;;;;;;;4974261;28;45570;-67
2022/06/27 08:40:52;;;;;;;;;2.50;2.50;;;;;;;;4974043;28;45934;-67
2022/06/27 08:43:17;;;;;;;;;4.00;3.00;;;;;;;;4972640;28;46181;-67
2022/06/27 08:45:44;;;;;;;;;3.25;3.25;;;;;;;;4973946;28;45440;-66
2022/06/27 08:48:11;;;;;;;;;1.75;1.75;;;;;;;;4973777;28;45530;-66
2022/06/27 08:50:37;;;;;;;;;4.00;2.25;;;;;;;;4973150;28;46128;-66
2022/06/27 08:53:03;;;;;;;;;3.75;2.00;;;;;;;;4970893;28;45537;-65
2022/06/27 08:55:31;;;;;;;;;3.25;3.25;;;;;;;;4974238;28;45901;-65
2022/06/27 08:57:59;;;;;;;;;2.50;2.50;;;;;;;;4974677;28;45438;-66
2022/06/27 09:00:25;;;;;;;;;2.50;2.50;;;;;;;;4995204;28;48506;-66
2022/06/27 09:02:50;;;;;;;;;6.00;4.00;;;;;;;;4962913;28;45439;-66
2022/06/27 09:05:16;;;;;;;;;3.25;2.75;;;;;;;;4963071;28;45503;-66
2022/06/27 09:07:49;;;;;;;;;3.00;3.00;;;;;;;;4974308;28;45379;-67
2022/06/27 09:10:29;;;;;;;;;1.00;1.00;;;;;;;;5005270;28;48278;-66
2022/06/27 09:12:55;;;;;;;;;0.75;0.75;;;;;;;;4974217;28;45571;-66
2022/06/27 09:15:21;;;;;;;;;1.25;1.25;;;;;;;;4996067;28;46131;-65
2022/06/27 09:17:59;;;;;;;;;2.00;2.00;;;;;;;;4967189;28;45479;-66
2022/06/27 09:20:25;;;;;;;;;2.75;2.75;;;;;;;;5005060;28;47378;-65
2022/06/27 09:22:52;;;;;;;;;1.50;1.50;;;;;;;;4972247;28;45430;-65
2022/06/27 09:25:21;;;;;;;;;2.75;2.50;;;;;;;;4972397;28;45709;-66
2022/06/27 09:27:51;;;;;;;;;2.50;2.50;;;;;;;;4974046;28;45314;-66
2022/06/27 09:30:22;;;;;;;;;2.00;2.00;;;;;;;;4973131;28;47895;-67
2022/06/27 09:32:58;;;;;;;;;3.00;1.00;;;;;;;;5000200;28;46135;-66
2022/06/27 09:35:25;;;;;;;;;1.25;1.25;;;;;;;;4962309;28;45477;-65
2022/06/27 09:37:52;;;;;;;;;1.75;1.75;;;;;;;;4973453;28;45466;-65
2022/06/27 09:40:17;;;;;;;;;1.00;1.00;;;;;;;;4971811;28;47566;-67
2022/06/27 09:42:44;;;;;;;;;1.25;1.25;;;;;;;;4992498;28;46232;-65
2022/06/27 09:45:10;;;;;;;;;0.75;0.75;;;;;;;;5000387;28;45750;-64
2022/06/27 09:47:36;;;;;;;;;2.75;1.75;;;;;;;;4971340;28;45462;-65
2022/06/27 09:50:03;;;;;;;;;0.25;0.00;;;;;;;;4972452;28;45490;-67
2022/06/27 09:52:28;;;;;;;;;0.75;0.75;;;;;;;;4971320;28;45351;-66
2022/06/27 09:54:54;;;;;;;;;0.75;0.00;;;;;;;;4973287;28;45371;-66
2022/06/27 09:57:20;;;;;;;;;0.75;0.75;;;;;;;;4994983;28;45468;-65
2022/06/27 09:59:47;;;;;;;;;0.00;0.00;;;;;;;;4960841;28;47524;-67
2022/06/27 10:02:16;;;;;;;;;0.75;0.25;;;;;;;;4961613;28;45498;-65
2022/06/27 10:04:42;;;;;;;;;1.00;1.00;;;;;;;;4988566;28;45495;-66
2022/06/27 10:07:08;;;;;;;;;2.00;0.50;;;;;;;;4972272;28;45486;-65
2022/06/27 10:09:36;;;;;;;;;0.00;0.00;;;;;;;;4993250;28;47813;-66
2022/06/27 10:12:23;;;;;;;;;0.75;0.50;;;;;;;;4967194;28;46351;-65
2022/06/27 10:15:07;;;;;;;;;0.00;0.00;;;;;;;;4975734;28;47741;-65
2022/06/27 10:17:35;;;;;;;;;0.50;0.00;;;;;;;;4975225;28;45565;-65
2022/06/27 10:20:01;;;;;;;;;0.00;0.00;;;;;;;;4975133;28;45601;-66
2022/06/27 10:22:26;;;;;;;;;0.00;0.00;;;;;;;;4975354;28;45459;-68
2022/06/27 10:24:52;;;;;;;;;0.00;0.00;;;;;;;;4976397;28;45346;-65
2022/06/27 10:27:31;;;;;;;;;0.50;0.50;;;;;;;;4974992;28;46001;-67
2022/06/27 10:29:59;;;;;;;;;0.00;0.00;;;;;;;;5001008;28;47589;-64
2022/06/27 10:32:43;;;;;;;;;0.00;0.00;;;;;;;;4965817;28;45543;-65
2022/06/27 10:35:09;;;;;;;;;2.00;0.00;;;;;;;;5006337;28;45570;-65
2022/06/27 10:37:38;;;;;;;;;1.00;1.00;;;;;;;;4995510;28;45709;-64
2022/06/27 10:40:19;;;;;;;;;1.00;0.50;;;;;;;;5004894;28;48169;-66
2022/06/27 10:42:48;;;;;;;;;0.00;0.00;;;;;;;;5005648;28;45466;-65
2022/06/27 10:45:19;;;;;;;;;1.00;1.00;;;;;;;;4974562;28;45558;-64
2022/06/27 10:47:44;;;;;;;;;0.00;0.00;;;;;;;;4971554;28;45570;-66
2022/06/27 10:50:10;;;;;;;;;0.00;0.00;;;;;;;;4974445;28;46183;-63
2022/06/27 10:52:35;;;;;;;;;0.00;0.00;;;;;;;;4974761;28;45442;-65
2022/06/27 10:55:01;;;;;;;;;0.50;0.00;;;;;;;;4974581;28;45371;-66
2022/06/27 10:57:36;;;;;;;;;0.00;0.00;;;;;;;;4973622;28;45434;-66
2022/06/27 11:00:03;;;;;;;;;1.50;0.00;;;;;;;;4972881;28;48464;-64
2022/06/27 11:02:29;;;;;;;;;0.50;0.50;;;;;;;;4974566;28;45426;-65
2022/06/27 11:04:55;;;;;;;;;0.50;0.50;;;;;;;;4974419;28;45356;-65
2022/06/27 11:07:21;;;;;;;;;1.75;1.00;;;;;;;;4974337;28;45251;-64
2022/06/27 11:09:47;;;;;;;;;0.00;0.00;;;;;;;;4971829;28;47887;-65
2022/06/27 11:12:14;;;;;;;;;0.00;0.00;;;;;;;;4972090;28;45351;-64
2022/06/27 11:15:05;;;;;;;;;0.00;0.00;;;;;;;;4974638;28;45381;-65
2022/06/27 11:17:31;;;;;;;;;0.00;0.00;;;;;;;;4972675;28;45375;-64
2022/06/27 11:20:16;;;;;;;;;0.00;0.00;;;;;;;;4974017;28;45537;-64
2022/06/27 11:22:42;;;;;;;;;0.00;0.00;;;;;;;;4969859;28;45723;-64
2022/06/27 11:25:08;;;;;;;;;0.00;0.00;;;;;;;;5006249;28;45554;-65
2022/06/27 11:27:46;;;;;;;;;0.00;0.00;;;;;;;;4972280;28;45471;-64
2022/06/27 11:33:08;;;;;;;;;1.00;1.00;;;;;;;;4973396;28;45435;-65
2022/06/27 11:35:33;;;;;;;;;0.00;0.00;;;;;;;;4971017;28;45491;-65
2022/06/27 11:37:58;;;;;;;;;0.00;0.00;;;;;;;;4971387;28;45521;-66
2022/06/27 11:40:24;;;;;;;;;0.00;0.00;;;;;;;;4972654;28;47402;-65
2022/06/27 11:42:52;;;;;;;;;0.00;0.00;;;;;;;;4974670;28;45455;-65
2022/06/27 11:45:17;;;;;;;;;0.25;0.00;;;;;;;;4973715;28;46268;-65
2022/06/27 11:47:45;;;;;;;;;0.50;0.50;;;;;;;;4973279;28;45825;-65
2022/06/27 11:50:13;;;;;;;;;1.00;0.00;;;;;;;;4971046;28;48427;-66
2022/06/27 11:52:39;;;;;;;;;0.00;0.00;;;;;;;;4973607;28;45379;-65
2022/06/27 11:55:08;;;;;;;;;0.00;0.00;;;;;;;;4974460;28;45391;-64
2022/06/27 11:57:33;;;;;;;;;1.50;0.25;;;;;;;;4973332;28;45412;-65
2022/06/27 12:00:00;;;;;;;;;1.00;1.00;;;;;;;;4971852;28;48731;-65
2022/06/27 12:02:28;;;;;;;;;0.00;0.00;;;;;;;;4973831;28;45372;-65
2022/06/27 12:05:07;;;;;;;;;3.00;0.00;;;;;;;;4972205;28;45599;-65
2022/06/27 12:07:48;;;;;;;;;0.00;0.00;;;;;;;;4974620;28;45444;-64
2022/06/27 12:10:14;;;;;;;;;1.75;0.00;;;;;;;;4977041;28;46636;-64
2022/06/27 12:12:43;;;;;;;;;2.75;1.00;;;;;;;;4976347;28;45460;-65
2022/06/27 12:15:19;;;;;;;;;2.00;0.00;;;;;;;;4977219;28;45580;-66
2022/06/27 12:17:44;;;;;;;;;0.00;0.00;;;;;;;;4976738;28;45473;-66
2022/06/27 12:20:09;;;;;;;;;0.00;0.00;;;;;;;;4975729;28;45923;-65
2022/06/27 12:22:34;;;;;;;;;0.00;0.00;;;;;;;;4977211;28;45421;-64
2022/06/27 12:25:00;;;;;;;;;1.00;0.00;;;;;;;;5008509;28;45435;-64
2022/06/27 12:27:26;;;;;;;;;0.00;0.00;;;;;;;;4974914;28;45391;-65
2022/06/27 12:29:51;;;;;;;;;0.00;0.00;;;;;;;;4976687;28;46101;-67
2022/06/27 12:32:16;;;;;;;;;0.00;0.00;;;;;;;;4973745;28;45502;-65
2022/06/27 12:34:42;;;;;;;;;0.00;0.00;;;;;;;;5008700;28;45431;-65
2022/06/27 12:37:07;;;;;;;;;1.00;0.00;;;;;;;;5008296;28;45390;-65
2022/06/27 12:39:32;;;;;;;;;1.00;0.00;;;;;;;;4973253;28;48534;-66
2022/06/27 12:41:57;;;;;;;;;1.50;0.00;;;;;;;;4976744;28;45458;-68
2022/06/27 12:44:22;;;;;;;;;0.00;0.00;;;;;;;;4976749;28;45420;-65
2022/06/27 12:46:48;;;;;;;;;1.00;0.00;;;;;;;;4976805;28;45340;-66
2022/06/27 12:49:13;;;;;;;;;2.00;0.00;;;;;;;;4975992;28;45502;-66
2022/06/27 12:51:38;;;;;;;;;0.00;0.00;;;;;;;;5004325;28;46104;-65
2022/06/27 12:54:04;;;;;;;;;1.50;1.50;;;;;;;;4977139;28;45304;-66
2022/06/27 12:56:29;;;;;;;;;2.00;2.00;;;;;;;;4976284;28;45496;-67
2022/06/27 12:58:55;;;;;;;;;0.00;0.00;;;;;;;;5007869;28;47414;-66
2022/06/27 13:01:20;;;;;;;;;1.75;1.00;;;;;;;;4974060;28;45379;-64
2022/06/27 13:03:46;;;;;;;;;0.00;0.00;;;;;;;;4973793;28;45967;-66
2022/06/27 13:06:11;;;;;;;;;0.75;0.75;;;;;;;;4969490;28;45475;-65
2022/06/27 13:08:37;;;;;;;;;0.00;0.00;;;;;;;;4971232;28;48367;-67
2022/06/27 13:11:02;;;;;;;;;0.00;0.00;;;;;;;;5004701;28;46021;-65
2022/06/27 13:13:28;;;;;;;;;0.00;0.00;;;;;;;;4973524;28;45646;-67
2022/06/27 13:15:53;;;;;;;;;0.00;0.00;;;;;;;;4974036;28;46053;-66
2022/06/27 13:18:19;;;;;;;;;0.00;0.00;;;;;;;;4970855;28;47513;-68
2022/06/27 13:20:44;;;;;;;;;0.00;0.00;;;;;;;;4972970;28;45431;-67
2022/06/27 13:23:09;;;;;;;;;0.00;0.00;;;;;;;;5005232;28;45994;-66
2022/06/27 13:25:35;;;;;;;;;0.00;0.00;;;;;;;;4973270;28;45585;-66
2022/06/27 13:28:00;;;;;;;;;0.00;0.00;;;;;;;;4973546;28;46525;-67
2022/06/27 13:30:26;;;;;;;;;0.00;0.00;;;;;;;;4973178;28;45494;-66
2022/06/27 13:32:51;;;;;;;;;0.00;0.00;;;;;;;;4973212;28;45546;-67
2022/06/27 13:35:16;;;;;;;;;0.00;0.00;;;;;;;;4969153;28;45565;-66
2022/06/27 13:37:41;;;;;;;;;0.00;0.00;;;;;;;;4973230;28;46243;-68
2022/06/27 13:40:07;;;;;;;;;1.00;1.00;;;;;;;;5000453;28;45668;-66
2022/06/27 13:42:33;;;;;;;;;0.00;0.00;;;;;;;;4971782;28;45508;-67
2022/06/27 13:44:58;;;;;;;;;0.00;0.00;;;;;;;;4970331;28;45379;-66
2022/06/27 13:47:24;;;;;;;;;0.00;0.00;;;;;;;;4971478;28;48180;-65
2022/06/27 13:49:50;;;;;;;;;0.00;0.00;;;;;;;;4971134;28;45958;-67
2022/06/27 13:52:16;;;;;;;;;0.50;0.50;;;;;;;;4972048;28;45470;-66
2022/06/27 13:54:41;;;;;;;;;0.00;0.00;;;;;;;;4973228;28;45544;-66
2022/06/27 13:57:06;;;;;;;;;0.00;0.00;;;;;;;;4972551;28;45518;-66
2022/06/27 13:59:32;;;;;;;;;0.00;0.00;;;;;;;;4968938;28;45448;-67
2022/06/27 14:01:57;;;;;;;;;0.00;0.00;;;;;;;;4972917;28;45489;-66
2022/06/27 14:04:22;;;;;;;;;0.00;0.00;;;;;;;;4965532;28;46498;-67
2022/06/27 14:09:31;;;;;;;;;0.00;0.00;;;;;;;;4972884;28;45799;-67
2022/06/27 14:11:56;;;;;;;;;0.00;0.00;;;;;;;;4972293;28;45578;-66
2022/06/27 14:14:21;;;;;;;;;0.00;0.00;;;;;;;;4972642;28;45433;-67
2022/06/27 14:16:47;;;;;;;;;0.00;0.00;;;;;;;;4972441;28;45899;-66
2022/06/27 14:19:12;;;;;;;;;0.00;0.00;;;;;;;;4971339;28;45841;-69
2022/06/27 14:21:38;;;;;;;;;0.00;0.00;;;;;;;;4972654;28;45375;-66
2022/06/27 14:24:04;;;;;;;;;0.00;0.00;;;;;;;;4972112;28;45603;-66
2022/06/27 14:26:29;;;;;;;;;0.00;0.00;;;;;;;;4971985;28;45994;-67
2022/06/27 14:28:54;;;;;;;;;0.25;0.25;;;;;;;;4972090;28;45422;-65
2022/06/27 14:31:19;;;;;;;;;0.00;0.00;;;;;;;;4970735;28;45487;-67
2022/06/27 14:33:44;;;;;;;;;0.75;0.00;;;;;;;;5003833;28;45616;-66
2022/06/27 14:36:10;;;;;;;;;0.00;0.00;;;;;;;;4971990;28;46102;-65
2022/06/27 14:38:39;;;;;;;;;0.50;0.50;;;;;;;;4972018;28;45581;-66
2022/06/27 14:41:04;;;;;;;;;0.00;0.00;;;;;;;;5003514;28;45496;-65
2022/06/27 14:43:30;;;;;;;;;0.00;0.00;;;;;;;;4971984;28;45912;-67
2022/06/27 14:45:55;;;;;;;;;0.75;0.75;;;;;;;;5003853;28;47811;-65